sensor_id;sensor_type;location;lat;lon;timestamp;temperature;humidity
27492;DHT22;14927;51.210;6.838;2023-05-10T00:01:17;18.80;68.50
27492;DHT22;14927;51.210;6.838;2023-05-10T00:04:01;18.80;68.50
27492;DHT22;14927;51.210;6.838;2023-05-10T00:06:46;18.80;68.70
27492;DHT22;14927;51.210;6.838;2023-05-10T00:09:31;18.80;68.70
27492;DHT22;14927;51.210;6.838;2023-05-10T00:12:16;18.80;68.80
27492;DHT22;14927;51.210;6.838;2023-05-10T00:15:01;18.80;68.80
27492;DHT22;14927;51.210;6.838;2023-05-10T00:17:46;18.80;68.80
27492;DHT22;14927;51.210;6.838;2023-05-10T00:20:31;18.80;68.80
27492;DHT22;14927;51.210;6.838;2023-05-10T00:23:15;18.80;68.80
27492;DHT22;14927;51.210;6.838;2023-05-10T00:26:00;18.80;68.80
27492;DHT22;14927;51.210;6.838;2023-05-10T00:28:45;18.70;68.80
27492;DHT22;14927;51.210;6.838;2023-05-10T00:31:29;18.70;68.90
27492;DHT22;14927;51.210;6.838;2023-05-10T00:34:14;18.70;69.00
27492;DHT22;14927;51.210;6.838;2023-05-10T00:36:58;18.70;69.00
27492;DHT22;14927;51.210;6.838;2023-05-10T00:39:43;18.70;69.00
27492;DHT22;14927;51.210;6.838;2023-05-10T00:42:28;18.70;68.90
27492;DHT22;14927;51.210;6.838;2023-05-10T00:45:12;18.70;69.00
27492;DHT22;14927;51.210;6.838;2023-05-10T00:47:57;18.70;69.10
27492;DHT22;14927;51.210;6.838;2023-05-10T00:50:44;18.70;69.20
27492;DHT22;14927;51.210;6.838;2023-05-10T00:53:31;18.70;69.20
27492;DHT22;14927;51.210;6.838;2023-05-10T00:56:16;18.70;69.30
27492;DHT22;14927;51.210;6.838;2023-05-10T00:59:01;18.70;69.30
27492;DHT22;14927;51.210;6.838;2023-05-10T01:01:46;18.70;69.40
27492;DHT22;14927;51.210;6.838;2023-05-10T01:04:31;18.70;69.40
27492;DHT22;14927;51.210;6.838;2023-05-10T01:07:16;18.70;69.30
27492;DHT22;14927;51.210;6.838;2023-05-10T01:10:01;18.70;69.00
27492;DHT22;14927;51.210;6.838;2023-05-10T01:12:46;18.70;68.50
27492;DHT22;14927;51.210;6.838;2023-05-10T01:15:32;18.70;68.20
27492;DHT22;14927;51.210;6.838;2023-05-10T01:18:20;18.70;68.00
27492;DHT22;14927;51.210;6.838;2023-05-10T01:37:06;18.50;68.00
27492;DHT22;14927;51.210;6.838;2023-05-10T01:40:17;18.50;68.00
27492;DHT22;14927;51.210;6.838;2023-05-10T01:43:13;18.50;68.10
27492;DHT22;14927;51.210;6.838;2023-05-10T01:46:07;18.50;67.90
27492;DHT22;14927;51.210;6.838;2023-05-10T01:48:58;18.40;67.80
27492;DHT22;14927;51.210;6.838;2023-05-10T01:51:48;18.40;67.90
27492;DHT22;14927;51.210;6.838;2023-05-10T01:54:44;18.40;67.70
27492;DHT22;14927;51.210;6.838;2023-05-10T01:57:39;18.40;67.70
27492;DHT22;14927;51.210;6.838;2023-05-10T02:00:25;18.40;67.70
27492;DHT22;14927;51.210;6.838;2023-05-10T02:03:12;18.40;67.80
27492;DHT22;14927;51.210;6.838;2023-05-10T02:05:57;18.30;67.80
27492;DHT22;14927;51.210;6.838;2023-05-10T02:08:43;18.30;67.90
27492;DHT22;14927;51.210;6.838;2023-05-10T02:11:31;18.30;67.90
27492;DHT22;14927;51.210;6.838;2023-05-10T02:14:17;18.30;68.00
27492;DHT22;14927;51.210;6.838;2023-05-10T02:17:05;18.30;68.10
27492;DHT22;14927;51.210;6.838;2023-05-10T02:19:51;18.30;68.10
27492;DHT22;14927;51.210;6.838;2023-05-10T02:22:37;18.30;68.20
27492;DHT22;14927;51.210;6.838;2023-05-10T02:25:24;18.30;68.30
27492;DHT22;14927;51.210;6.838;2023-05-10T02:28:10;18.30;68.40
27492;DHT22;14927;51.210;6.838;2023-05-10T02:30:56;18.20;68.40
27492;DHT22;14927;51.210;6.838;2023-05-10T02:33:41;18.20;68.40
27492;DHT22;14927;51.210;6.838;2023-05-10T02:36:26;18.30;68.40
27492;DHT22;14927;51.210;6.838;2023-05-10T02:39:13;18.30;68.40
27492;DHT22;14927;51.210;6.838;2023-05-10T02:41:59;18.30;68.40
27492;DHT22;14927;51.210;6.838;2023-05-10T02:44:47;18.30;68.50
27492;DHT22;14927;51.210;6.838;2023-05-10T02:47:34;18.30;68.60
27492;DHT22;14927;51.210;6.838;2023-05-10T02:50:19;18.30;68.70
27492;DHT22;14927;51.210;6.838;2023-05-10T02:53:10;18.30;68.80
27492;DHT22;14927;51.210;6.838;2023-05-10T02:55:59;18.20;69.10
27492;DHT22;14927;51.210;6.838;2023-05-10T02:58:48;18.30;69.20
27492;DHT22;14927;51.210;6.838;2023-05-10T03:01:32;18.20;69.40
27492;DHT22;14927;51.210;6.838;2023-05-10T03:04:17;18.30;69.50
27492;DHT22;14927;51.210;6.838;2023-05-10T03:07:02;18.30;69.50
27492;DHT22;14927;51.210;6.838;2023-05-10T03:09:48;18.30;69.60
27492;DHT22;14927;51.210;6.838;2023-05-10T03:18:56;18.30;69.90
27492;DHT22;14927;51.210;6.838;2023-05-10T03:21:59;18.30;69.80
27492;DHT22;14927;51.210;6.838;2023-05-10T03:24:49;18.30;69.60
27492;DHT22;14927;51.210;6.838;2023-05-10T03:27:35;18.30;69.60
27492;DHT22;14927;51.210;6.838;2023-05-10T03:30:20;18.30;69.60
27492;DHT22;14927;51.210;6.838;2023-05-10T03:33:07;18.30;69.50
27492;DHT22;14927;51.210;6.838;2023-05-10T03:35:52;18.30;69.60
27492;DHT22;14927;51.210;6.838;2023-05-10T03:38:37;18.30;69.60
27492;DHT22;14927;51.210;6.838;2023-05-10T03:41:21;18.30;70.50
27492;DHT22;14927;51.210;6.838;2023-05-10T03:44:06;18.30;69.70
27492;DHT22;14927;51.210;6.838;2023-05-10T03:46:50;18.30;69.70
27492;DHT22;14927;51.210;6.838;2023-05-10T03:49:35;18.30;69.80
27492;DHT22;14927;51.210;6.838;2023-05-10T03:52:20;18.30;69.70
27492;DHT22;14927;51.210;6.838;2023-05-10T03:55:05;18.40;70.00
27492;DHT22;14927;51.210;6.838;2023-05-10T03:57:50;18.30;69.80
27492;DHT22;14927;51.210;6.838;2023-05-10T04:00:35;18.30;70.60
27492;DHT22;14927;51.210;6.838;2023-05-10T04:03:19;18.30;69.80
27492;DHT22;14927;51.210;6.838;2023-05-10T04:06:04;18.30;69.80
27492;DHT22;14927;51.210;6.838;2023-05-10T04:08:49;18.30;69.90
27492;DHT22;14927;51.210;6.838;2023-05-10T04:11:33;18.30;69.90
27492;DHT22;14927;51.210;6.838;2023-05-10T04:14:18;18.30;69.80
27492;DHT22;14927;51.210;6.838;2023-05-10T04:17:03;18.30;69.80
27492;DHT22;14927;51.210;6.838;2023-05-10T04:19:47;18.30;70.00
27492;DHT22;14927;51.210;6.838;2023-05-10T04:22:32;18.30;70.10
27492;DHT22;14927;51.210;6.838;2023-05-10T04:25:16;18.30;70.10
27492;DHT22;14927;51.210;6.838;2023-05-10T04:28:01;18.30;70.10
27492;DHT22;14927;51.210;6.838;2023-05-10T04:30:46;18.30;70.00
27492;DHT22;14927;51.210;6.838;2023-05-10T04:33:31;18.30;69.90
27492;DHT22;14927;51.210;6.838;2023-05-10T04:36:16;18.30;69.80
27492;DHT22;14927;51.210;6.838;2023-05-10T04:39:01;18.30;70.00
27492;DHT22;14927;51.210;6.838;2023-05-10T04:41:49;18.40;70.20
27492;DHT22;14927;51.210;6.838;2023-05-10T04:44:34;18.40;70.20
27492;DHT22;14927;51.210;6.838;2023-05-10T04:47:18;18.30;70.20
27492;DHT22;14927;51.210;6.838;2023-05-10T04:50:03;18.40;70.20
27492;DHT22;14927;51.210;6.838;2023-05-10T04:52:48;18.40;70.30
27492;DHT22;14927;51.210;6.838;2023-05-10T04:55:33;18.40;70.30
27492;DHT22;14927;51.210;6.838;2023-05-10T04:58:17;18.40;70.30
27492;DHT22;14927;51.210;6.838;2023-05-10T05:01:09;18.40;70.20
27492;DHT22;14927;51.210;6.838;2023-05-10T05:03:54;18.40;70.40
27492;DHT22;14927;51.210;6.838;2023-05-10T05:06:38;18.40;70.30
27492;DHT22;14927;51.210;6.838;2023-05-10T05:09:23;18.40;70.40
27492;DHT22;14927;51.210;6.838;2023-05-10T05:12:07;18.40;71.30
27492;DHT22;14927;51.210;6.838;2023-05-10T05:14:52;18.40;70.50
27492;DHT22;14927;51.210;6.838;2023-05-10T05:17:36;18.50;70.50
27492;DHT22;14927;51.210;6.838;2023-05-10T05:20:21;18.50;70.30
27492;DHT22;14927;51.210;6.838;2023-05-10T05:23:06;18.50;70.20
27492;DHT22;14927;51.210;6.838;2023-05-10T05:25:54;18.50;70.20
27492;DHT22;14927;51.210;6.838;2023-05-10T05:28:38;18.50;70.40
27492;DHT22;14927;51.210;6.838;2023-05-10T05:31:23;18.50;70.40
27492;DHT22;14927;51.210;6.838;2023-05-10T05:34:07;18.50;70.40
27492;DHT22;14927;51.210;6.838;2023-05-10T05:36:52;18.50;70.40
27492;DHT22;14927;51.210;6.838;2023-05-10T05:39:37;18.50;70.10
27492;DHT22;14927;51.210;6.838;2023-05-10T05:42:22;18.50;69.90
27492;DHT22;14927;51.210;6.838;2023-05-10T05:45:09;18.50;69.70
27492;DHT22;14927;51.210;6.838;2023-05-10T05:47:56;18.50;69.70
27492;DHT22;14927;51.210;6.838;2023-05-10T05:50:41;18.50;69.50
27492;DHT22;14927;51.210;6.838;2023-05-10T05:53:26;18.60;69.30
27492;DHT22;14927;51.210;6.838;2023-05-10T05:56:10;18.50;69.10
27492;DHT22;14927;51.210;6.838;2023-05-10T05:58:55;18.50;69.10
27492;DHT22;14927;51.210;6.838;2023-05-10T06:01:40;18.50;69.00
27492;DHT22;14927;51.210;6.838;2023-05-10T06:04:25;18.50;68.70
27492;DHT22;14927;51.210;6.838;2023-05-10T06:07:09;18.50;68.70
27492;DHT22;14927;51.210;6.838;2023-05-10T06:09:54;18.50;68.70
27492;DHT22;14927;51.210;6.838;2023-05-10T06:12:39;18.50;68.70
27492;DHT22;14927;51.210;6.838;2023-05-10T06:15:23;18.50;68.90
27492;DHT22;14927;51.210;6.838;2023-05-10T06:18:08;18.50;69.00
27492;DHT22;14927;51.210;6.838;2023-05-10T06:20:53;18.50;69.00
27492;DHT22;14927;51.210;6.838;2023-05-10T06:23:37;18.50;68.80
27492;DHT22;14927;51.210;6.838;2023-05-10T06:26:22;18.50;68.80
27492;DHT22;14927;51.210;6.838;2023-05-10T06:29:07;18.50;68.70
27492;DHT22;14927;51.210;6.838;2023-05-10T06:31:51;18.50;68.40
27492;DHT22;14927;51.210;6.838;2023-05-10T06:34:37;18.50;68.40
27492;DHT22;14927;51.210;6.838;2023-05-10T06:37:21;18.50;68.50
27492;DHT22;14927;51.210;6.838;2023-05-10T06:40:06;18.50;68.50
27492;DHT22;14927;51.210;6.838;2023-05-10T06:42:51;18.50;68.50
27492;DHT22;14927;51.210;6.838;2023-05-10T06:45:35;18.50;68.50
27492;DHT22;14927;51.210;6.838;2023-05-10T06:48:20;18.50;68.40
27492;DHT22;14927;51.210;6.838;2023-05-10T06:51:04;18.50;68.40
27492;DHT22;14927;51.210;6.838;2023-05-10T06:53:49;18.50;68.40
27492;DHT22;14927;51.210;6.838;2023-05-10T06:56:33;18.50;68.40
27492;DHT22;14927;51.210;6.838;2023-05-10T06:59:18;18.50;68.50
27492;DHT22;14927;51.210;6.838;2023-05-10T07:02:03;18.50;68.50
27492;DHT22;14927;51.210;6.838;2023-05-10T07:04:48;18.50;68.60
27492;DHT22;14927;51.210;6.838;2023-05-10T07:07:32;18.50;68.60
27492;DHT22;14927;51.210;6.838;2023-05-10T07:10:17;18.60;68.70
27492;DHT22;14927;51.210;6.838;2023-05-10T07:13:02;18.50;68.70
27492;DHT22;14927;51.210;6.838;2023-05-10T07:15:46;18.60;68.90
27492;DHT22;14927;51.210;6.838;2023-05-10T07:18:31;18.60;69.10
27492;DHT22;14927;51.210;6.838;2023-05-10T07:21:16;18.60;69.00
27492;DHT22;14927;51.210;6.838;2023-05-10T07:24:00;18.60;68.80
27492;DHT22;14927;51.210;6.838;2023-05-10T07:26:45;18.60;68.80
27492;DHT22;14927;51.210;6.838;2023-05-10T07:29:30;18.70;68.90
27492;DHT22;14927;51.210;6.838;2023-05-10T07:32:14;18.70;68.90
27492;DHT22;14927;51.210;6.838;2023-05-10T07:34:59;18.50;68.70
27492;DHT22;14927;51.210;6.838;2023-05-10T07:37:44;18.70;68.80
27492;DHT22;14927;51.210;6.838;2023-05-10T07:40:28;18.70;68.90
27492;DHT22;14927;51.210;6.838;2023-05-10T07:43:14;18.80;68.90
27492;DHT22;14927;51.210;6.838;2023-05-10T07:45:58;18.80;68.90
27492;DHT22;14927;51.210;6.838;2023-05-10T07:48:43;18.80;68.60
27492;DHT22;14927;51.210;6.838;2023-05-10T07:51:28;18.90;68.40
27492;DHT22;14927;51.210;6.838;2023-05-10T07:54:14;18.90;68.20
27492;DHT22;14927;51.210;6.838;2023-05-10T07:57:00;18.90;68.10
27492;DHT22;14927;51.210;6.838;2023-05-10T07:59:44;18.90;68.10
27492;DHT22;14927;51.210;6.838;2023-05-10T08:02:29;19.00;68.10
27492;DHT22;14927;51.210;6.838;2023-05-10T08:05:14;19.00;68.20
27492;DHT22;14927;51.210;6.838;2023-05-10T08:07:58;19.00;68.30
27492;DHT22;14927;51.210;6.838;2023-05-10T08:10:43;19.00;68.10
27492;DHT22;14927;51.210;6.838;2023-05-10T08:13:28;19.00;67.70
27492;DHT22;14927;51.210;6.838;2023-05-10T08:16:13;19.00;67.60
27492;DHT22;14927;51.210;6.838;2023-05-10T08:18:58;19.10;67.80
27492;DHT22;14927;51.210;6.838;2023-05-10T08:21:42;19.10;67.60
27492;DHT22;14927;51.210;6.838;2023-05-10T08:24:27;19.10;67.30
27492;DHT22;14927;51.210;6.838;2023-05-10T08:27:11;19.10;67.20
27492;DHT22;14927;51.210;6.838;2023-05-10T08:29:56;19.20;67.10
27492;DHT22;14927;51.210;6.838;2023-05-10T08:32:41;19.20;66.60
27492;DHT22;14927;51.210;6.838;2023-05-10T08:35:26;19.20;66.00
27492;DHT22;14927;51.210;6.838;2023-05-10T08:38:10;19.30;65.80
27492;DHT22;14927;51.210;6.838;2023-05-10T08:40:55;19.30;65.60
27492;DHT22;14927;51.210;6.838;2023-05-10T08:43:43;19.30;65.60
27492;DHT22;14927;51.210;6.838;2023-05-10T08:46:31;19.30;66.00
27492;DHT22;14927;51.210;6.838;2023-05-10T08:49:20;19.40;66.30
27492;DHT22;14927;51.210;6.838;2023-05-10T08:52:05;19.50;66.30
27492;DHT22;14927;51.210;6.838;2023-05-10T08:54:51;19.50;66.20
27492;DHT22;14927;51.210;6.838;2023-05-10T08:57:36;19.60;66.00
27492;DHT22;14927;51.210;6.838;2023-05-10T09:00:20;19.60;65.20
27492;DHT22;14927;51.210;6.838;2023-05-10T09:03:07;19.70;64.50
27492;DHT22;14927;51.210;6.838;2023-05-10T09:05:52;19.70;63.80
27492;DHT22;14927;51.210;6.838;2023-05-10T09:08:36;19.80;63.60
27492;DHT22;14927;51.210;6.838;2023-05-10T09:11:22;19.70;63.20
27492;DHT22;14927;51.210;6.838;2023-05-10T09:14:07;19.70;63.20
27492;DHT22;14927;51.210;6.838;2023-05-10T09:16:54;19.80;63.30
27492;DHT22;14927;51.210;6.838;2023-05-10T09:19:39;19.80;63.50
27492;DHT22;14927;51.210;6.838;2023-05-10T09:22:23;19.80;63.30
27492;DHT22;14927;51.210;6.838;2023-05-10T09:25:13;19.80;63.00
27492;DHT22;14927;51.210;6.838;2023-05-10T09:27:59;19.80;62.10
27492;DHT22;14927;51.210;6.838;2023-05-10T09:30:53;19.80;61.80
27492;DHT22;14927;51.210;6.838;2023-05-10T09:33:47;19.80;61.10
27492;DHT22;14927;51.210;6.838;2023-05-10T09:36:32;19.80;61.10
27492;DHT22;14927;51.210;6.838;2023-05-10T09:39:17;19.90;61.80
27492;DHT22;14927;51.210;6.838;2023-05-10T09:42:07;19.90;61.70
27492;DHT22;14927;51.210;6.838;2023-05-10T09:44:52;19.90;61.30
27492;DHT22;14927;51.210;6.838;2023-05-10T09:47:37;19.90;61.50
27492;DHT22;14927;51.210;6.838;2023-05-10T09:50:22;20.00;61.20
27492;DHT22;14927;51.210;6.838;2023-05-10T09:53:07;20.00;60.50
27492;DHT22;14927;51.210;6.838;2023-05-10T09:55:51;20.00;60.30
27492;DHT22;14927;51.210;6.838;2023-05-10T09:58:37;20.00;60.00
27492;DHT22;14927;51.210;6.838;2023-05-10T10:01:26;20.00;60.20
27492;DHT22;14927;51.210;6.838;2023-05-10T10:04:10;20.00;60.00
27492;DHT22;14927;51.210;6.838;2023-05-10T10:07:03;20.10;60.00
27492;DHT22;14927;51.210;6.838;2023-05-10T10:09:48;20.10;59.30
27492;DHT22;14927;51.210;6.838;2023-05-10T10:12:33;20.10;59.30
27492;DHT22;14927;51.210;6.838;2023-05-10T10:15:18;20.10;59.30
27492;DHT22;14927;51.210;6.838;2023-05-10T10:18:05;20.10;59.30
27492;DHT22;14927;51.210;6.838;2023-05-10T10:20:49;20.10;59.20
27492;DHT22;14927;51.210;6.838;2023-05-10T10:23:35;20.10;59.20
27492;DHT22;14927;51.210;6.838;2023-05-10T10:26:20;20.20;59.00
27492;DHT22;14927;51.210;6.838;2023-05-10T10:32:19;20.20;58.50
27492;DHT22;14927;51.210;6.838;2023-05-10T10:35:11;20.20;58.40
27492;DHT22;14927;51.210;6.838;2023-05-10T10:37:56;20.20;58.60
27492;DHT22;14927;51.210;6.838;2023-05-10T10:40:43;20.20;58.40
27492;DHT22;14927;51.210;6.838;2023-05-10T10:43:29;20.20;58.20
27492;DHT22;14927;51.210;6.838;2023-05-10T10:46:17;20.20;58.30
27492;DHT22;14927;51.210;6.838;2023-05-10T10:49:09;20.20;58.40
27492;DHT22;14927;51.210;6.838;2023-05-10T10:52:21;20.30;57.70
27492;DHT22;14927;51.210;6.838;2023-05-10T10:57:59;20.40;58.50
27492;DHT22;14927;51.210;6.838;2023-05-10T11:00:48;20.40;58.30
27492;DHT22;14927;51.210;6.838;2023-05-10T11:03:33;20.40;58.00
27492;DHT22;14927;51.210;6.838;2023-05-10T11:06:32;20.50;57.80
27492;DHT22;14927;51.210;6.838;2023-05-10T11:09:17;20.50;57.70
27492;DHT22;14927;51.210;6.838;2023-05-10T11:12:08;20.60;57.70
27492;DHT22;14927;51.210;6.838;2023-05-10T11:14:57;20.60;57.30
27492;DHT22;14927;51.210;6.838;2023-05-10T11:17:42;20.60;57.50
27492;DHT22;14927;51.210;6.838;2023-05-10T11:20:27;20.60;57.30
27492;DHT22;14927;51.210;6.838;2023-05-10T11:23:17;20.70;57.20
27492;DHT22;14927;51.210;6.838;2023-05-10T11:26:02;20.70;57.40
27492;DHT22;14927;51.210;6.838;2023-05-10T11:28:48;20.70;57.50
27492;DHT22;14927;51.210;6.838;2023-05-10T11:31:33;20.70;57.50
27492;DHT22;14927;51.210;6.838;2023-05-10T11:34:26;20.70;57.40
27492;DHT22;14927;51.210;6.838;2023-05-10T11:37:13;20.70;57.00
27492;DHT22;14927;51.210;6.838;2023-05-10T11:39:58;20.80;57.50
27492;DHT22;14927;51.210;6.838;2023-05-10T11:42:42;20.80;57.30
27492;DHT22;14927;51.210;6.838;2023-05-10T11:45:27;20.80;57.20
27492;DHT22;14927;51.210;6.838;2023-05-10T11:48:15;20.80;56.70
27492;DHT22;14927;51.210;6.838;2023-05-10T11:51:01;20.80;56.60
27492;DHT22;14927;51.210;6.838;2023-05-10T11:53:46;20.80;56.60
27492;DHT22;14927;51.210;6.838;2023-05-10T11:56:32;20.80;56.70
27492;DHT22;14927;51.210;6.838;2023-05-10T11:59:17;20.90;57.10
27492;DHT22;14927;51.210;6.838;2023-05-10T12:02:02;20.90;56.70
27492;DHT22;14927;51.210;6.838;2023-05-10T12:04:47;20.90;56.40
27492;DHT22;14927;51.210;6.838;2023-05-10T12:07:32;20.90;56.20
27492;DHT22;14927;51.210;6.838;2023-05-10T12:10:25;20.90;56.30
27492;DHT22;14927;51.210;6.838;2023-05-10T12:13:14;20.90;56.20
27492;DHT22;14927;51.210;6.838;2023-05-10T12:15:59;20.90;56.40
27492;DHT22;14927;51.210;6.838;2023-05-10T12:18:48;21.00;56.40
27492;DHT22;14927;51.210;6.838;2023-05-10T12:21:36;21.00;56.30
27492;DHT22;14927;51.210;6.838;2023-05-10T12:24:24;21.00;56.40
27492;DHT22;14927;51.210;6.838;2023-05-10T12:27:09;21.00;56.40
27492;DHT22;14927;51.210;6.838;2023-05-10T12:29:54;21.10;56.20
27492;DHT22;14927;51.210;6.838;2023-05-10T12:32:44;21.10;56.30
27492;DHT22;14927;51.210;6.838;2023-05-10T12:35:31;21.10;55.90
27492;DHT22;14927;51.210;6.838;2023-05-10T12:38:31;21.10;55.70
27492;DHT22;14927;51.210;6.838;2023-05-10T12:41:21;21.10;55.60
27492;DHT22;14927;51.210;6.838;2023-05-10T12:44:06;21.20;56.00
27492;DHT22;14927;51.210;6.838;2023-05-10T12:46:51;21.20;55.90
27492;DHT22;14927;51.210;6.838;2023-05-10T12:49:35;21.20;56.00
27492;DHT22;14927;51.210;6.838;2023-05-10T12:52:20;21.10;55.80
27492;DHT22;14927;51.210;6.838;2023-05-10T12:55:05;21.10;56.00
27492;DHT22;14927;51.210;6.838;2023-05-10T12:57:50;21.20;56.50
27492;DHT22;14927;51.210;6.838;2023-05-10T13:00:34;21.10;56.80
27492;DHT22;14927;51.210;6.838;2023-05-10T13:03:19;21.10;57.10
27492;DHT22;14927;51.210;6.838;2023-05-10T13:06:04;21.10;57.50
27492;DHT22;14927;51.210;6.838;2023-05-10T13:08:49;21.10;57.90
27492;DHT22;14927;51.210;6.838;2023-05-10T13:11:34;21.10;58.20
27492;DHT22;14927;51.210;6.838;2023-05-10T13:14:18;21.20;58.30
27492;DHT22;14927;51.210;6.838;2023-05-10T13:17:04;21.20;58.10
27492;DHT22;14927;51.210;6.838;2023-05-10T13:19:49;21.20;57.80
27492;DHT22;14927;51.210;6.838;2023-05-10T13:22:33;21.20;56.90
27492;DHT22;14927;51.210;6.838;2023-05-10T13:25:18;21.30;56.90
27492;DHT22;14927;51.210;6.838;2023-05-10T13:28:03;21.30;56.70
27492;DHT22;14927;51.210;6.838;2023-05-10T13:30:48;21.30;56.30
27492;DHT22;14927;51.210;6.838;2023-05-10T13:33:32;21.20;56.40
27492;DHT22;14927;51.210;6.838;2023-05-10T13:36:17;21.30;56.90
27492;DHT22;14927;51.210;6.838;2023-05-10T13:39:02;21.30;56.90
27492;DHT22;14927;51.210;6.838;2023-05-10T13:41:49;21.30;56.90
27492;DHT22;14927;51.210;6.838;2023-05-10T13:44:33;21.30;56.80
27492;DHT22;14927;51.210;6.838;2023-05-10T13:47:18;21.30;56.80
27492;DHT22;14927;51.210;6.838;2023-05-10T13:50:03;21.30;56.30
27492;DHT22;14927;51.210;6.838;2023-05-10T13:52:48;21.30;56.10
27492;DHT22;14927;51.210;6.838;2023-05-10T13:55:32;21.30;56.30
27492;DHT22;14927;51.210;6.838;2023-05-10T13:58:17;21.30;56.40
27492;DHT22;14927;51.210;6.838;2023-05-10T14:01:02;21.30;56.50
27492;DHT22;14927;51.210;6.838;2023-05-10T14:03:47;21.30;56.30
27492;DHT22;14927;51.210;6.838;2023-05-10T14:06:32;21.40;56.00
27492;DHT22;14927;51.210;6.838;2023-05-10T14:09:18;21.40;55.90
27492;DHT22;14927;51.210;6.838;2023-05-10T14:12:02;21.40;55.40
27492;DHT22;14927;51.210;6.838;2023-05-10T14:14:47;21.20;55.10
27492;DHT22;14927;51.210;6.838;2023-05-10T14:17:32;21.40;55.60
27492;DHT22;14927;51.210;6.838;2023-05-10T14:20:16;21.40;55.80
27492;DHT22;14927;51.210;6.838;2023-05-10T14:23:01;21.40;55.90
27492;DHT22;14927;51.210;6.838;2023-05-10T14:25:45;21.40;56.10
27492;DHT22;14927;51.210;6.838;2023-05-10T14:28:31;21.40;57.10
27492;DHT22;14927;51.210;6.838;2023-05-10T14:31:16;21.40;56.80
27492;DHT22;14927;51.210;6.838;2023-05-10T14:34:03;21.40;57.10
27492;DHT22;14927;51.210;6.838;2023-05-10T14:36:48;21.40;57.30
27492;DHT22;14927;51.210;6.838;2023-05-10T14:39:32;21.40;57.20
27492;DHT22;14927;51.210;6.838;2023-05-10T14:42:17;21.40;57.20
27492;DHT22;14927;51.210;6.838;2023-05-10T14:45:02;21.40;57.10
27492;DHT22;14927;51.210;6.838;2023-05-10T14:47:48;21.40;57.30
27492;DHT22;14927;51.210;6.838;2023-05-10T14:50:33;21.40;57.20
27492;DHT22;14927;51.210;6.838;2023-05-10T14:53:18;21.40;57.70
27492;DHT22;14927;51.210;6.838;2023-05-10T14:56:03;21.50;58.00
27492;DHT22;14927;51.210;6.838;2023-05-10T14:58:49;21.50;57.70
27492;DHT22;14927;51.210;6.838;2023-05-10T15:01:34;21.50;57.50
27492;DHT22;14927;51.210;6.838;2023-05-10T15:04:21;21.60;58.10
27492;DHT22;14927;51.210;6.838;2023-05-10T15:07:06;21.60;58.20
27492;DHT22;14927;51.210;6.838;2023-05-10T15:09:51;21.60;58.20
27492;DHT22;14927;51.210;6.838;2023-05-10T15:12:38;21.60;58.10
27492;DHT22;14927;51.210;6.838;2023-05-10T15:15:23;21.70;58.60
27492;DHT22;14927;51.210;6.838;2023-05-10T15:18:09;21.70;58.90
27492;DHT22;14927;51.210;6.838;2023-05-10T15:20:53;21.70;59.00
27492;DHT22;14927;51.210;6.838;2023-05-10T15:23:39;21.80;59.30
27492;DHT22;14927;51.210;6.838;2023-05-10T15:26:23;21.80;59.60
27492;DHT22;14927;51.210;6.838;2023-05-10T15:29:10;21.80;59.50
27492;DHT22;14927;51.210;6.838;2023-05-10T15:31:55;21.90;59.20
27492;DHT22;14927;51.210;6.838;2023-05-10T15:34:40;21.90;58.80
27492;DHT22;14927;51.210;6.838;2023-05-10T15:37:25;21.90;58.60
27492;DHT22;14927;51.210;6.838;2023-05-10T15:40:10;21.90;58.40
27492;DHT22;14927;51.210;6.838;2023-05-10T15:42:55;21.90;58.30
27492;DHT22;14927;51.210;6.838;2023-05-10T15:45:48;22.00;57.90
27492;DHT22;14927;51.210;6.838;2023-05-10T15:48:33;22.00;57.20
27492;DHT22;14927;51.210;6.838;2023-05-10T15:51:21;22.10;56.80
27492;DHT22;14927;51.210;6.838;2023-05-10T15:54:06;22.00;56.40
27492;DHT22;14927;51.210;6.838;2023-05-10T15:56:53;22.10;56.30
27492;DHT22;14927;51.210;6.838;2023-05-10T15:59:40;22.10;56.30
27492;DHT22;14927;51.210;6.838;2023-05-10T16:02:26;22.10;56.50
27492;DHT22;14927;51.210;6.838;2023-05-10T16:05:10;22.10;56.50
27492;DHT22;14927;51.210;6.838;2023-05-10T16:07:55;22.10;56.20
27492;DHT22;14927;51.210;6.838;2023-05-10T16:10:40;22.10;56.20
27492;DHT22;14927;51.210;6.838;2023-05-10T16:13:25;22.10;56.20
27492;DHT22;14927;51.210;6.838;2023-05-10T16:16:10;22.10;56.30
27492;DHT22;14927;51.210;6.838;2023-05-10T16:18:57;22.10;55.70
27492;DHT22;14927;51.210;6.838;2023-05-10T16:21:47;22.10;55.00
27492;DHT22;14927;51.210;6.838;2023-05-10T16:24:32;22.10;55.00
27492;DHT22;14927;51.210;6.838;2023-05-10T16:27:17;22.10;54.60
27492;DHT22;14927;51.210;6.838;2023-05-10T16:30:01;22.10;54.00
27492;DHT22;14927;51.210;6.838;2023-05-10T16:32:49;22.10;53.70
27492;DHT22;14927;51.210;6.838;2023-05-10T16:35:33;22.20;53.20
27492;DHT22;14927;51.210;6.838;2023-05-10T16:38:18;22.10;52.90
27492;DHT22;14927;51.210;6.838;2023-05-10T16:41:04;22.10;52.70
27492;DHT22;14927;51.210;6.838;2023-05-10T16:43:49;22.10;52.50
27492;DHT22;14927;51.210;6.838;2023-05-10T16:46:34;22.20;52.40
27492;DHT22;14927;51.210;6.838;2023-05-10T16:49:22;22.00;52.40
27492;DHT22;14927;51.210;6.838;2023-05-10T16:52:06;22.00;52.00
27492;DHT22;14927;51.210;6.838;2023-05-10T16:54:53;22.00;52.10
27492;DHT22;14927;51.210;6.838;2023-05-10T16:57:38;21.90;51.60
27492;DHT22;14927;51.210;6.838;2023-05-10T17:00:22;21.90;51.80
27492;DHT22;14927;51.210;6.838;2023-05-10T17:03:07;21.80;51.90
27492;DHT22;14927;51.210;6.838;2023-05-10T17:05:52;21.70;51.80
27492;DHT22;14927;51.210;6.838;2023-05-10T17:08:36;21.70;52.10
27492;DHT22;14927;51.210;6.838;2023-05-10T17:11:21;21.60;52.00
27492;DHT22;14927;51.210;6.838;2023-05-10T17:14:08;21.60;52.00
27492;DHT22;14927;51.210;6.838;2023-05-10T17:16:53;21.50;51.70
27492;DHT22;14927;51.210;6.838;2023-05-10T17:19:38;21.50;51.60
27492;DHT22;14927;51.210;6.838;2023-05-10T17:22:23;21.50;51.80
27492;DHT22;14927;51.210;6.838;2023-05-10T17:25:08;21.40;51.90
27492;DHT22;14927;51.210;6.838;2023-05-10T17:27:52;21.40;51.90
27492;DHT22;14927;51.210;6.838;2023-05-10T17:30:37;21.30;51.90
27492;DHT22;14927;51.210;6.838;2023-05-10T17:33:21;21.20;51.80
27492;DHT22;14927;51.210;6.838;2023-05-10T17:36:06;21.20;51.60
27492;DHT22;14927;51.210;6.838;2023-05-10T17:38:51;21.10;51.70
27492;DHT22;14927;51.210;6.838;2023-05-10T17:41:35;21.10;51.90
27492;DHT22;14927;51.210;6.838;2023-05-10T17:44:22;21.00;52.10
27492;DHT22;14927;51.210;6.838;2023-05-10T17:47:08;21.00;52.50
27492;DHT22;14927;51.210;6.838;2023-05-10T17:49:53;21.00;52.50
27492;DHT22;14927;51.210;6.838;2023-05-10T17:52:41;20.90;52.50
27492;DHT22;14927;51.210;6.838;2023-05-10T17:55:26;20.90;52.70